sensor_id;sensor_type;location;lat;lon;timestamp;temperature;humidity
79439;DHT22;68889;48.232;10.110;2023-12-20T00:00:22;5.80;79.40
79439;DHT22;68889;48.232;10.110;2023-12-20T00:02:52;5.90;79.50
79439;DHT22;68889;48.232;10.110;2023-12-20T00:05:23;5.80;79.90
79439;DHT22;68889;48.232;10.110;2023-12-20T00:08:04;5.80;79.80
79439;DHT22;68889;48.232;10.110;2023-12-20T00:10:41;5.80;79.60
79439;DHT22;68889;48.232;10.110;2023-12-20T00:13:11;5.70;80.30
79439;DHT22;68889;48.232;10.110;2023-12-20T00:15:51;5.70;80.10
79439;DHT22;68889;48.232;10.110;2023-12-20T00:18:21;5.70;80.30
79439;DHT22;68889;48.232;10.110;2023-12-20T00:21:00;5.70;81.10
79439;DHT22;68889;48.232;10.110;2023-12-20T00:23:26;5.60;81.40
79439;DHT22;68889;48.232;10.110;2023-12-20T00:26:01;5.60;82.10
79439;DHT22;68889;48.232;10.110;2023-12-20T00:28:30;5.50;82.40
79439;DHT22;68889;48.232;10.110;2023-12-20T00:31:11;5.50;82.60
79439;DHT22;68889;48.232;10.110;2023-12-20T00:33:51;5.50;83.50
79439;DHT22;68889;48.232;10.110;2023-12-20T00:36:19;5.40;83.80
79439;DHT22;68889;48.232;10.110;2023-12-20T00:38:48;5.30;84.40
79439;DHT22;68889;48.232;10.110;2023-12-20T00:41:19;5.40;84.30
79439;DHT22;68889;48.232;10.110;2023-12-20T00:43:47;5.30;85.20
79439;DHT22;68889;48.232;10.110;2023-12-20T00:46:45;5.30;85.30
79439;DHT22;68889;48.232;10.110;2023-12-20T00:49:17;5.30;85.50
79439;DHT22;68889;48.232;10.110;2023-12-20T00:51:45;5.30;85.50
79439;DHT22;68889;48.232;10.110;2023-12-20T00:54:11;5.30;86.00
79439;DHT22;68889;48.232;10.110;2023-12-20T00:56:51;5.20;86.50
79439;DHT22;68889;48.232;10.110;2023-12-20T00:59:22;5.10;87.10
79439;DHT22;68889;48.232;10.110;2023-12-20T01:01:51;5.10;87.70
79439;DHT22;68889;48.232;10.110;2023-12-20T01:04:17;5.10;87.90
79439;DHT22;68889;48.232;10.110;2023-12-20T01:06:43;5.10;88.10
79439;DHT22;68889;48.232;10.110;2023-12-20T01:09:08;5.10;88.30
79439;DHT22;68889;48.232;10.110;2023-12-20T01:11:34;5.10;88.50
79439;DHT22;68889;48.232;10.110;2023-12-20T01:14:00;5.10;88.70
79439;DHT22;68889;48.232;10.110;2023-12-20T01:16:26;5.00;89.10
79439;DHT22;68889;48.232;10.110;2023-12-20T01:18:52;5.00;89.20
79439;DHT22;68889;48.232;10.110;2023-12-20T01:21:18;5.00;89.40
79439;DHT22;68889;48.232;10.110;2023-12-20T01:23:43;5.00;89.90
79439;DHT22;68889;48.232;10.110;2023-12-20T01:26:09;4.90;90.20
79439;DHT22;68889;48.232;10.110;2023-12-20T01:28:35;4.90;90.50
79439;DHT22;68889;48.232;10.110;2023-12-20T01:31:01;4.90;90.70
79439;DHT22;68889;48.232;10.110;2023-12-20T01:33:27;4.90;91.10
79439;DHT22;68889;48.232;10.110;2023-12-20T01:35:52;4.90;91.10
79439;DHT22;68889;48.232;10.110;2023-12-20T01:38:18;5.00;91.60
79439;DHT22;68889;48.232;10.110;2023-12-20T01:40:44;5.00;91.80
79439;DHT22;68889;48.232;10.110;2023-12-20T01:43:11;5.00;91.90
79439;DHT22;68889;48.232;10.110;2023-12-20T01:45:40;5.00;92.30
79439;DHT22;68889;48.232;10.110;2023-12-20T01:48:07;4.90;92.50
79439;DHT22;68889;48.232;10.110;2023-12-20T01:50:36;4.90;92.60
79439;DHT22;68889;48.232;10.110;2023-12-20T01:53:04;4.90;92.70
79439;DHT22;68889;48.232;10.110;2023-12-20T01:55:32;5.00;92.70
79439;DHT22;68889;48.232;10.110;2023-12-20T01:58:00;5.00;92.80
79439;DHT22;68889;48.232;10.110;2023-12-20T02:00:28;5.00;93.00
79439;DHT22;68889;48.232;10.110;2023-12-20T02:02:56;5.00;93.20
79439;DHT22;68889;48.232;10.110;2023-12-20T02:05:22;5.00;93.50
79439;DHT22;68889;48.232;10.110;2023-12-20T02:07:49;5.00;93.40
79439;DHT22;68889;48.232;10.110;2023-12-20T02:10:16;5.00;93.60
79439;DHT22;68889;48.232;10.110;2023-12-20T02:12:41;5.10;93.50
79439;DHT22;68889;48.232;10.110;2023-12-20T02:15:07;5.10;93.70
79439;DHT22;68889;48.232;10.110;2023-12-20T02:17:33;5.10;93.80
79439;DHT22;68889;48.232;10.110;2023-12-20T02:19:59;5.10;93.90
79439;DHT22;68889;48.232;10.110;2023-12-20T02:22:25;5.10;94.10
79439;DHT22;68889;48.232;10.110;2023-12-20T02:24:50;5.20;94.30
79439;DHT22;68889;48.232;10.110;2023-12-20T02:27:18;5.10;95.50
79439;DHT22;68889;48.232;10.110;2023-12-20T02:29:46;5.10;96.20
79439;DHT22;68889;48.232;10.110;2023-12-20T02:32:12;5.10;96.70
79439;DHT22;68889;48.232;10.110;2023-12-20T02:34:38;5.10;97.60
79439;DHT22;68889;48.232;10.110;2023-12-20T02:37:04;5.10;97.70
79439;DHT22;68889;48.232;10.110;2023-12-20T02:39:30;5.00;98.00
79439;DHT22;68889;48.232;10.110;2023-12-20T02:41:56;5.00;98.10
79439;DHT22;68889;48.232;10.110;2023-12-20T02:44:21;5.00;98.70
79439;DHT22;68889;48.232;10.110;2023-12-20T02:46:49;5.00;98.90
79439;DHT22;68889;48.232;10.110;2023-12-20T02:49:15;5.00;99.20
79439;DHT22;68889;48.232;10.110;2023-12-20T02:51:40;5.00;99.20
79439;DHT22;68889;48.232;10.110;2023-12-20T02:54:06;5.00;99.50
79439;DHT22;68889;48.232;10.110;2023-12-20T02:56:33;5.00;99.60
79439;DHT22;68889;48.232;10.110;2023-12-20T02:58:58;5.00;99.70
79439;DHT22;68889;48.232;10.110;2023-12-20T03:01:24;4.90;99.90
79439;DHT22;68889;48.232;10.110;2023-12-20T03:03:50;5.00;99.80
79439;DHT22;68889;48.232;10.110;2023-12-20T03:06:19;5.00;99.80
79439;DHT22;68889;48.232;10.110;2023-12-20T03:08:46;4.90;99.90
79439;DHT22;68889;48.232;10.110;2023-12-20T03:11:11;4.90;99.90
79439;DHT22;68889;48.232;10.110;2023-12-20T03:13:37;4.90;99.90
79439;DHT22;68889;48.232;10.110;2023-12-20T03:16:12;4.90;99.90
79439;DHT22;68889;48.232;10.110;2023-12-20T03:18:39;4.90;99.90
79439;DHT22;68889;48.232;10.110;2023-12-20T03:21:05;4.90;99.90
79439;DHT22;68889;48.232;10.110;2023-12-20T03:23:31;4.90;99.90
79439;DHT22;68889;48.232;10.110;2023-12-20T03:25:58;4.90;99.90
79439;DHT22;68889;48.232;10.110;2023-12-20T03:28:24;4.90;99.90
79439;DHT22;68889;48.232;10.110;2023-12-20T03:30:50;4.90;99.90
79439;DHT22;68889;48.232;10.110;2023-12-20T03:33:15;4.90;99.90
79439;DHT22;68889;48.232;10.110;2023-12-20T03:35:41;4.90;99.90
79439;DHT22;68889;48.232;10.110;2023-12-20T03:38:07;4.90;99.90
79439;DHT22;68889;48.232;10.110;2023-12-20T03:40:33;4.90;99.90
79439;DHT22;68889;48.232;10.110;2023-12-20T03:42:59;4.90;99.90
79439;DHT22;68889;48.232;10.110;2023-12-20T03:45:25;4.90;99.90
79439;DHT22;68889;48.232;10.110;2023-12-20T03:47:51;4.90;99.90
79439;DHT22;68889;48.232;10.110;2023-12-20T03:50:24;5.00;99.90
79439;DHT22;68889;48.232;10.110;2023-12-20T03:52:50;5.00;99.90
79439;DHT22;68889;48.232;10.110;2023-12-20T03:55:16;4.90;99.90
79439;DHT22;68889;48.232;10.110;2023-12-20T03:57:42;5.00;99.90
79439;DHT22;68889;48.232;10.110;2023-12-20T04:00:08;5.00;99.90
79439;DHT22;68889;48.232;10.110;2023-12-20T04:02:38;5.00;99.90
79439;DHT22;68889;48.232;10.110;2023-12-20T04:05:04;5.00;99.90
79439;DHT22;68889;48.232;10.110;2023-12-20T04:07:31;5.00;99.90
79439;DHT22;68889;48.232;10.110;2023-12-20T04:09:57;5.00;99.90
79439;DHT22;68889;48.232;10.110;2023-12-20T04:12:22;5.00;99.90
79439;DHT22;68889;48.232;10.110;2023-12-20T04:14:48;5.00;99.90
79439;DHT22;68889;48.232;10.110;2023-12-20T04:17:15;5.00;99.90
79439;DHT22;68889;48.232;10.110;2023-12-20T04:19:42;5.00;99.90
79439;DHT22;68889;48.232;10.110;2023-12-20T04:22:08;5.00;99.90
79439;DHT22;68889;48.232;10.110;2023-12-20T04:24:34;5.00;99.90
79439;DHT22;68889;48.232;10.110;2023-12-20T04:27:01;5.00;99.90
79439;DHT22;68889;48.232;10.110;2023-12-20T04:29:26;5.00;99.90
79439;DHT22;68889;48.232;10.110;2023-12-20T04:31:52;5.00;99.90
79439;DHT22;68889;48.232;10.110;2023-12-20T04:34:18;5.00;99.90
79439;DHT22;68889;48.232;10.110;2023-12-20T04:36:44;5.00;99.90
79439;DHT22;68889;48.232;10.110;2023-12-20T04:39:12;5.00;99.90
79439;DHT22;68889;48.232;10.110;2023-12-20T04:41:38;5.00;99.90
79439;DHT22;68889;48.232;10.110;2023-12-20T04:44:05;5.00;99.90
79439;DHT22;68889;48.232;10.110;2023-12-20T04:46:32;5.00;99.90
79439;DHT22;68889;48.232;10.110;2023-12-20T04:48:57;5.00;99.90
79439;DHT22;68889;48.232;10.110;2023-12-20T04:51:23;5.00;99.90
79439;DHT22;68889;48.232;10.110;2023-12-20T04:53:49;5.00;99.90
79439;DHT22;68889;48.232;10.110;2023-12-20T04:56:14;5.00;99.90
79439;DHT22;68889;48.232;10.110;2023-12-20T04:58:40;5.00;99.90
79439;DHT22;68889;48.232;10.110;2023-12-20T05:01:07;5.00;99.90
79439;DHT22;68889;48.232;10.110;2023-12-20T05:03:33;5.00;99.90
79439;DHT22;68889;48.232;10.110;2023-12-20T05:05:59;5.00;99.90
79439;DHT22;68889;48.232;10.110;2023-12-20T05:08:25;5.00;99.90
79439;DHT22;68889;48.232;10.110;2023-12-20T05:10:54;5.00;99.90
79439;DHT22;68889;48.232;10.110;2023-12-20T05:13:20;5.00;99.90
79439;DHT22;68889;48.232;10.110;2023-12-20T05:15:46;5.00;99.90
79439;DHT22;68889;48.232;10.110;2023-12-20T05:18:12;5.00;99.90
79439;DHT22;68889;48.232;10.110;2023-12-20T05:20:38;4.90;99.90
79439;DHT22;68889;48.232;10.110;2023-12-20T05:23:04;4.90;99.90
79439;DHT22;68889;48.232;10.110;2023-12-20T05:25:31;4.90;99.90
79439;DHT22;68889;48.232;10.110;2023-12-20T05:27:58;4.90;99.90
79439;DHT22;68889;48.232;10.110;2023-12-20T05:30:25;4.90;99.90
79439;DHT22;68889;48.232;10.110;2023-12-20T05:32:50;4.90;99.90
79439;DHT22;68889;48.232;10.110;2023-12-20T05:35:17;4.80;99.90
79439;DHT22;68889;48.232;10.110;2023-12-20T05:37:44;4.80;99.90
79439;DHT22;68889;48.232;10.110;2023-12-20T05:40:10;4.80;99.90
79439;DHT22;68889;48.232;10.110;2023-12-20T05:42:37;4.70;99.90
79439;DHT22;68889;48.232;10.110;2023-12-20T05:45:03;4.70;99.90
79439;DHT22;68889;48.232;10.110;2023-12-20T05:47:30;4.70;99.90
79439;DHT22;68889;48.232;10.110;2023-12-20T05:49:56;4.70;99.90
79439;DHT22;68889;48.232;10.110;2023-12-20T05:52:23;4.60;99.90
79439;DHT22;68889;48.232;10.110;2023-12-20T05:54:48;4.60;99.90
79439;DHT22;68889;48.232;10.110;2023-12-20T05:57:14;4.60;99.90
79439;DHT22;68889;48.232;10.110;2023-12-20T05:59:40;4.60;99.90
79439;DHT22;68889;48.232;10.110;2023-12-20T06:02:06;4.60;99.90
79439;DHT22;68889;48.232;10.110;2023-12-20T06:04:35;4.50;99.90
79439;DHT22;68889;48.232;10.110;2023-12-20T06:07:02;4.50;99.90
79439;DHT22;68889;48.232;10.110;2023-12-20T06:09:28;4.50;99.90
79439;DHT22;68889;48.232;10.110;2023-12-20T06:11:54;4.50;99.90
79439;DHT22;68889;48.232;10.110;2023-12-20T06:14:20;4.50;99.90
79439;DHT22;68889;48.232;10.110;2023-12-20T06:16:46;4.50;99.90
79439;DHT22;68889;48.232;10.110;2023-12-20T06:19:12;4.50;99.90
79439;DHT22;68889;48.232;10.110;2023-12-20T06:21:37;4.50;99.90
79439;DHT22;68889;48.232;10.110;2023-12-20T06:24:03;4.50;99.90
79439;DHT22;68889;48.232;10.110;2023-12-20T06:26:29;4.50;99.90
79439;DHT22;68889;48.232;10.110;2023-12-20T06:28:55;4.50;99.90
79439;DHT22;68889;48.232;10.110;2023-12-20T06:31:21;4.50;99.90
79439;DHT22;68889;48.232;10.110;2023-12-20T06:33:47;4.50;99.90
79439;DHT22;68889;48.232;10.110;2023-12-20T06:36:15;4.50;99.90
79439;DHT22;68889;48.232;10.110;2023-12-20T06:38:40;4.50;99.90
79439;DHT22;68889;48.232;10.110;2023-12-20T06:41:07;4.50;99.90
79439;DHT22;68889;48.232;10.110;2023-12-20T06:43:33;4.50;99.90
79439;DHT22;68889;48.232;10.110;2023-12-20T06:46:03;4.50;99.90
79439;DHT22;68889;48.232;10.110;2023-12-20T06:48:29;4.50;99.90
79439;DHT22;68889;48.232;10.110;2023-12-20T06:50:54;4.50;99.90
79439;DHT22;68889;48.232;10.110;2023-12-20T06:53:20;4.60;99.90
79439;DHT22;68889;48.232;10.110;2023-12-20T06:55:46;4.60;99.90
79439;DHT22;68889;48.232;10.110;2023-12-20T06:58:11;4.60;99.90
79439;DHT22;68889;48.232;10.110;2023-12-20T07:00:37;4.60;99.90
79439;DHT22;68889;48.232;10.110;2023-12-20T07:03:03;4.60;99.90
79439;DHT22;68889;48.232;10.110;2023-12-20T07:05:30;4.60;99.90
79439;DHT22;68889;48.232;10.110;2023-12-20T07:07:56;4.60;99.90
79439;DHT22;68889;48.232;10.110;2023-12-20T07:10:21;4.60;99.90
79439;DHT22;68889;48.232;10.110;2023-12-20T07:12:49;4.70;99.90
79439;DHT22;68889;48.232;10.110;2023-12-20T07:15:16;4.70;99.90
79439;DHT22;68889;48.232;10.110;2023-12-20T07:17:42;4.70;99.90
79439;DHT22;68889;48.232;10.110;2023-12-20T07:20:09;4.70;99.90
79439;DHT22;68889;48.232;10.110;2023-12-20T07:22:36;4.70;99.90
79439;DHT22;68889;48.232;10.110;2023-12-20T07:25:02;4.70;99.90
79439;DHT22;68889;48.232;10.110;2023-12-20T07:27:29;4.70;99.90
79439;DHT22;68889;48.232;10.110;2023-12-20T07:29:55;4.70;99.90
79439;DHT22;68889;48.232;10.110;2023-12-20T07:32:20;4.70;99.90
79439;DHT22;68889;48.232;10.110;2023-12-20T07:34:46;4.70;99.90
79439;DHT22;68889;48.232;10.110;2023-12-20T07:37:15;4.70;99.90
79439;DHT22;68889;48.232;10.110;2023-12-20T07:39:41;4.70;99.90
79439;DHT22;68889;48.232;10.110;2023-12-20T07:42:08;4.70;99.90
79439;DHT22;68889;48.232;10.110;2023-12-20T07:44:34;4.70;99.90
79439;DHT22;68889;48.232;10.110;2023-12-20T07:47:01;4.70;99.90
79439;DHT22;68889;48.232;10.110;2023-12-20T07:49:27;4.70;99.90
79439;DHT22;68889;48.232;10.110;2023-12-20T07:51:52;4.70;99.90
79439;DHT22;68889;48.232;10.110;2023-12-20T07:54:18;4.70;99.90
79439;DHT22;68889;48.232;10.110;2023-12-20T07:56:45;4.70;99.90
79439;DHT22;68889;48.232;10.110;2023-12-20T07:59:10;4.70;99.90
79439;DHT22;68889;48.232;10.110;2023-12-20T08:01:36;4.80;99.90
79439;DHT22;68889;48.232;10.110;2023-12-20T08:04:02;4.80;99.90
79439;DHT22;68889;48.232;10.110;2023-12-20T08:06:27;4.80;99.90
79439;DHT22;68889;48.232;10.110;2023-12-20T08:08:53;4.90;99.90
79439;DHT22;68889;48.232;10.110;2023-12-20T08:11:19;4.90;99.90
79439;DHT22;68889;48.232;10.110;2023-12-20T08:13:44;5.00;99.90
79439;DHT22;68889;48.232;10.110;2023-12-20T08:16:10;5.00;99.90
79439;DHT22;68889;48.232;10.110;2023-12-20T08:18:39;5.00;99.90
79439;DHT22;68889;48.232;10.110;2023-12-20T08:21:04;5.10;99.90
79439;DHT22;68889;48.232;10.110;2023-12-20T08:23:33;5.10;99.90
79439;DHT22;68889;48.232;10.110;2023-12-20T08:26:06;5.20;99.90
79439;DHT22;68889;48.232;10.110;2023-12-20T08:28:32;5.20;99.90
79439;DHT22;68889;48.232;10.110;2023-12-20T08:30:59;5.30;99.90
79439;DHT22;68889;48.232;10.110;2023-12-20T08:33:25;5.30;99.90
79439;DHT22;68889;48.232;10.110;2023-12-20T08:35:51;5.40;99.90
79439;DHT22;68889;48.232;10.110;2023-12-20T08:38:17;5.40;99.90
79439;DHT22;68889;48.232;10.110;2023-12-20T08:40:43;5.50;99.90
79439;DHT22;68889;48.232;10.110;2023-12-20T08:43:09;5.50;99.90
79439;DHT22;68889;48.232;10.110;2023-12-20T08:45:35;5.60;99.90
79439;DHT22;68889;48.232;10.110;2023-12-20T08:48:01;5.70;99.90
79439;DHT22;68889;48.232;10.110;2023-12-20T08:50:27;5.70;99.90
79439;DHT22;68889;48.232;10.110;2023-12-20T08:52:54;5.80;99.90
79439;DHT22;68889;48.232;10.110;2023-12-20T08:55:20;5.80;99.90
79439;DHT22;68889;48.232;10.110;2023-12-20T08:57:47;5.80;99.90
79439;DHT22;68889;48.232;10.110;2023-12-20T09:00:13;5.80;99.90
79439;DHT22;68889;48.232;10.110;2023-12-20T09:02:41;5.80;99.90
79439;DHT22;68889;48.232;10.110;2023-12-20T09:05:07;5.70;99.90
79439;DHT22;68889;48.232;10.110;2023-12-20T09:07:33;5.70;99.90
79439;DHT22;68889;48.232;10.110;2023-12-20T09:09:59;5.60;99.90
79439;DHT22;68889;48.232;10.110;2023-12-20T09:12:25;5.70;99.90
79439;DHT22;68889;48.232;10.110;2023-12-20T09:14:52;5.70;99.90
79439;DHT22;68889;48.232;10.110;2023-12-20T09:17:18;5.90;99.90
79439;DHT22;68889;48.232;10.110;2023-12-20T09:19:44;5.90;99.90
79439;DHT22;68889;48.232;10.110;2023-12-20T09:22:10;5.90;99.90
79439;DHT22;68889;48.232;10.110;2023-12-20T09:24:36;6.00;99.90
79439;DHT22;68889;48.232;10.110;2023-12-20T09:27:02;6.00;99.90
79439;DHT22;68889;48.232;10.110;2023-12-20T09:29:28;6.00;99.90
79439;DHT22;68889;48.232;10.110;2023-12-20T09:31:54;6.00;99.90
79439;DHT22;68889;48.232;10.110;2023-12-20T09:34:20;6.20;99.90
79439;DHT22;68889;48.232;10.110;2023-12-20T09:36:46;6.30;99.90
79439;DHT22;68889;48.232;10.110;2023-12-20T09:39:13;6.40;99.90
79439;DHT22;68889;48.232;10.110;2023-12-20T09:41:44;6.50;98.90
79439;DHT22;68889;48.232;10.110;2023-12-20T09:44:16;6.40;98.90
79439;DHT22;68889;48.232;10.110;2023-12-20T09:46:49;6.40;99.50
79439;DHT22;68889;48.232;10.110;2023-12-20T09:49:17;6.50;99.00
79439;DHT22;68889;48.232;10.110;2023-12-20T09:51:46;6.60;98.70
79439;DHT22;68889;48.232;10.110;2023-12-20T09:54:14;6.70;98.90
79439;DHT22;68889;48.232;10.110;2023-12-20T09:56:41;6.70;98.30
79439;DHT22;68889;48.232;10.110;2023-12-20T09:59:06;6.70;98.60
79439;DHT22;68889;48.232;10.110;2023-12-20T10:01:34;6.70;98.50
79439;DHT22;68889;48.232;10.110;2023-12-20T10:04:01;6.80;98.90
79439;DHT22;68889;48.232;10.110;2023-12-20T10:06:28;6.80;98.00
79439;DHT22;68889;48.232;10.110;2023-12-20T10:08:57;6.80;97.80
79439;DHT22;68889;48.232;10.110;2023-12-20T10:11:23;6.70;98.00
79439;DHT22;68889;48.232;10.110;2023-12-20T10:13:50;6.80;97.90
79439;DHT22;68889;48.232;10.110;2023-12-20T10:16:15;6.90;97.70
79439;DHT22;68889;48.232;10.110;2023-12-20T10:18:46;6.90;98.10
79439;DHT22;68889;48.232;10.110;2023-12-20T10:21:15;6.90;97.40
79439;DHT22;68889;48.232;10.110;2023-12-20T10:23:40;7.00;97.50
79439;DHT22;68889;48.232;10.110;2023-12-20T10:26:10;7.00;97.40
79439;DHT22;68889;48.232;10.110;2023-12-20T10:28:38;6.90;97.50
79439;DHT22;68889;48.232;10.110;2023-12-20T10:31:03;7.00;97.70
79439;DHT22;68889;48.232;10.110;2023-12-20T10:33:30;6.90;97.20
79439;DHT22;68889;48.232;10.110;2023-12-20T10:36:02;6.80;97.90
79439;DHT22;68889;48.232;10.110;2023-12-20T10:38:28;6.90;97.50
79439;DHT22;68889;48.232;10.110;2023-12-20T10:41:01;6.90;97.50
79439;DHT22;68889;48.232;10.110;2023-12-20T10:53:44;7.00;96.90
79439;DHT22;68889;48.232;10.110;2023-12-20T10:56:16;6.90;96.90
79439;DHT22;68889;48.232;10.110;2023-12-20T11:02:05;6.80;97.30
79439;DHT22;68889;48.232;10.110;2023-12-20T11:04:44;6.90;97.30
79439;DHT22;68889;48.232;10.110;2023-12-20T11:07:21;7.10;96.50
79439;DHT22;68889;48.232;10.110;2023-12-20T11:09:59;7.20;95.90
79439;DHT22;68889;48.232;10.110;2023-12-20T11:12:38;7.30;96.10
79439;DHT22;68889;48.232;10.110;2023-12-20T11:15:06;7.20;95.60
79439;DHT22;68889;48.232;10.110;2023-12-20T11:17:35;7.10;96.30
79439;DHT22;68889;48.232;10.110;2023-12-20T11:22:31;7.10;96.70
79439;DHT22;68889;48.232;10.110;2023-12-20T11:25:05;7.00;95.40
79439;DHT22;68889;48.232;10.110;2023-12-20T11:27:44;6.90;95.40
79439;DHT22;68889;48.232;10.110;2023-12-20T11:30:14;6.90;95.10
79439;DHT22;68889;48.232;10.110;2023-12-20T11:32:40;6.80;95.90
79439;DHT22;68889;48.232;10.110;2023-12-20T11:37:39;7.00;96.50
79439;DHT22;68889;48.232;10.110;2023-12-20T11:40:19;7.10;96.60
79439;DHT22;68889;48.232;10.110;2023-12-20T11:42:50;7.10;96.80
79439;DHT22;68889;48.232;10.110;2023-12-20T11:45:19;7.00;96.50
79439;DHT22;68889;48.232;10.110;2023-12-20T11:47:48;6.90;95.10
79439;DHT22;68889;48.232;10.110;2023-12-20T11:50:17;6.90;93.60
79439;DHT22;68889;48.232;10.110;2023-12-20T11:52:43;6.90;93.40
79439;DHT22;68889;48.232;10.110;2023-12-20T11:55:09;7.00;92.70
79439;DHT22;68889;48.232;10.110;2023-12-20T11:57:36;6.90;90.70
79439;DHT22;68889;48.232;10.110;2023-12-20T12:00:05;6.60;91.20
79439;DHT22;68889;48.232;10.110;2023-12-20T12:02:31;6.50;91.90
79439;DHT22;68889;48.232;10.110;2023-12-20T12:04:58;6.50;92.00
79439;DHT22;68889;48.232;10.110;2023-12-20T12:07:24;6.50;92.30
79439;DHT22;68889;48.232;10.110;2023-12-20T12:09:50;6.50;92.50
79439;DHT22;68889;48.232;10.110;2023-12-20T12:12:17;6.50;92.00
79439;DHT22;68889;48.232;10.110;2023-12-20T12:14:44;6.50;91.90
79439;DHT22;68889;48.232;10.110;2023-12-20T12:17:11;6.50;91.90
79439;DHT22;68889;48.232;10.110;2023-12-20T12:19:38;6.50;92.80
79439;DHT22;68889;48.232;10.110;2023-12-20T12:22:11;6.60;92.00
79439;DHT22;68889;48.232;10.110;2023-12-20T12:24:44;6.80;91.60
79439;DHT22;68889;48.232;10.110;2023-12-20T12:27:12;6.80;90.70
79439;DHT22;68889;48.232;10.110;2023-12-20T12:29:38;6.80;90.90
79439;DHT22;68889;48.232;10.110;2023-12-20T12:32:08;6.70;90.80
79439;DHT22;68889;48.232;10.110;2023-12-20T12:34:34;6.80;91.30
79439;DHT22;68889;48.232;10.110;2023-12-20T12:37:00;6.90;91.70
79439;DHT22;68889;48.232;10.110;2023-12-20T12:39:26;6.90;91.50
79439;DHT22;68889;48.232;10.110;2023-12-20T12:41:52;6.80;90.90
79439;DHT22;68889;48.232;10.110;2023-12-20T12:44:18;6.70;89.50
79439;DHT22;68889;48.232;10.110;2023-12-20T12:46:45;6.60;90.20
79439;DHT22;68889;48.232;10.110;2023-12-20T12:49:12;6.50;90.70
79439;DHT22;68889;48.232;10.110;2023-12-20T12:51:38;6.40;89.90
79439;DHT22;68889;48.232;10.110;2023-12-20T12:54:04;6.50;90.80
79439;DHT22;68889;48.232;10.110;2023-12-20T12:56:29;6.60;90.60
79439;DHT22;68889;48.232;10.110;2023-12-20T12:58:56;6.80;90.30
79439;DHT22;68889;48.232;10.110;2023-12-20T13:01:22;6.90;88.80
79439;DHT22;68889;48.232;10.110;2023-12-20T13:03:48;7.10;89.30
79439;DHT22;68889;48.232;10.110;2023-12-20T13:06:14;7.20;88.50
79439;DHT22;68889;48.232;10.110;2023-12-20T13:08:39;7.20;87.20
79439;DHT22;68889;48.232;10.110;2023-12-20T13:11:05;7.10;87.60
79439;DHT22;68889;48.232;10.110;2023-12-20T13:13:32;7.00;87.00
79439;DHT22;68889;48.232;10.110;2023-12-20T13:15:57;7.20;86.90
79439;DHT22;68889;48.232;10.110;2023-12-20T13:18:23;7.30;86.80
79439;DHT22;68889;48.232;10.110;2023-12-20T13:20:49;7.40;87.40
79439;DHT22;68889;48.232;10.110;2023-12-20T13:23:15;7.60;86.20
79439;DHT22;68889;48.232;10.110;2023-12-20T13:25:44;7.80;86.50
79439;DHT22;68889;48.232;10.110;2023-12-20T13:28:11;7.90;84.70
79439;DHT22;68889;48.232;10.110;2023-12-20T13:30:38;7.60;85.90
79439;DHT22;68889;48.232;10.110;2023-12-20T13:33:06;7.40;87.20
79439;DHT22;68889;48.232;10.110;2023-12-20T13:35:32;7.20;85.60
79439;DHT22;68889;48.232;10.110;2023-12-20T13:37:59;7.10;87.20
79439;DHT22;68889;48.232;10.110;2023-12-20T13:40:26;7.00;88.20
79439;DHT22;68889;48.232;10.110;2023-12-20T13:42:52;7.00;86.60
79439;DHT22;68889;48.232;10.110;2023-12-20T13:45:18;7.10;86.30
79439;DHT22;68889;48.232;10.110;2023-12-20T13:47:44;7.10;84.50
79439;DHT22;68889;48.232;10.110;2023-12-20T13:50:10;7.00;83.40
79439;DHT22;68889;48.232;10.110;2023-12-20T13:52:35;6.90;84.20
79439;DHT22;68889;48.232;10.110;2023-12-20T13:55:02;6.90;84.20
79439;DHT22;68889;48.232;10.110;2023-12-20T13:57:28;7.00;84.70
79439;DHT22;68889;48.232;10.110;2023-12-20T13:59:55;7.00;85.40
79439;DHT22;68889;48.232;10.110;2023-12-20T14:02:23;6.90;84.90
79439;DHT22;68889;48.232;10.110;2023-12-20T14:04:50;6.80;84.50
79439;DHT22;68889;48.232;10.110;2023-12-20T14:07:16;6.70;84.30
79439;DHT22;68889;48.232;10.110;2023-12-20T14:09:41;6.60;84.20
79439;DHT22;68889;48.232;10.110;2023-12-20T14:12:11;6.50;85.20
79439;DHT22;68889;48.232;10.110;2023-12-20T14:14:37;6.50;85.20
79439;DHT22;68889;48.232;10.110;2023-12-20T14:17:03;6.50;85.30
79439;DHT22;68889;48.232;10.110;2023-12-20T14:19:29;6.30;86.00
79439;DHT22;68889;48.232;10.110;2023-12-20T14:21:55;6.20;87.30
79439;DHT22;68889;48.232;10.110;2023-12-20T14:24:21;6.10;87.30
79439;DHT22;68889;48.232;10.110;2023-12-20T14:26:47;6.10;87.50
79439;DHT22;68889;48.232;10.110;2023-12-20T14:29:12;6.10;87.50
79439;DHT22;68889;48.232;10.110;2023-12-20T14:31:38;5.90;87.40
79439;DHT22;68889;48.232;10.110;2023-12-20T14:34:05;5.70;88.30
79439;DHT22;68889;48.232;10.110;2023-12-20T14:36:32;5.60;88.50
79439;DHT22;68889;48.232;10.110;2023-12-20T14:38:58;5.50;88.90
79439;DHT22;68889;48.232;10.110;2023-12-20T14:41:23;5.40;88.90
79439;DHT22;68889;48.232;10.110;2023-12-20T14:43:52;5.40;88.70
79439;DHT22;68889;48.232;10.110;2023-12-20T14:46:18;5.40;89.10
79439;DHT22;68889;48.232;10.110;2023-12-20T14:48:44;5.40;88.60
79439;DHT22;68889;48.232;10.110;2023-12-20T14:51:10;5.30;89.00
79439;DHT22;68889;48.232;10.110;2023-12-20T14:53:37;5.30;88.60
79439;DHT22;68889;48.232;10.110;2023-12-20T14:56:04;5.20;88.70
79439;DHT22;68889;48.232;10.110;2023-12-20T14:58:30;5.10;89.20
79439;DHT22;68889;48.232;10.110;2023-12-20T15:00:57;5.00;89.40
79439;DHT22;68889;48.232;10.110;2023-12-20T15:03:23;4.90;88.90
79439;DHT22;68889;48.232;10.110;2023-12-20T15:05:50;4.80;88.10
79439;DHT22;68889;48.232;10.110;2023-12-20T15:08:15;4.60;87.60
79439;DHT22;68889;48.232;10.110;2023-12-20T15:10:42;4.60;87.80
79439;DHT22;68889;48.232;10.110;2023-12-20T15:13:07;4.50;88.70
79439;DHT22;68889;48.232;10.110;2023-12-20T15:15:34;4.40;88.80
79439;DHT22;68889;48.232;10.110;2023-12-20T15:18:04;4.30;88.60
79439;DHT22;68889;48.232;10.110;2023-12-20T15:20:30;4.20;88.50
79439;DHT22;68889;48.232;10.110;2023-12-20T15:22:59;4.20;88.80
79439;DHT22;68889;48.232;10.110;2023-12-20T15:25:30;4.10;89.00
79439;DHT22;68889;48.232;10.110;2023-12-20T15:27:56;4.10;89.00
79439;DHT22;68889;48.232;10.110;2023-12-20T15:30:22;4.10;89.60
79439;DHT22;68889;48.232;10.110;2023-12-20T15:32:51;4.10;89.00
79439;DHT22;68889;48.232;10.110;2023-12-20T15:35:17;4.20;89.40
79439;DHT22;68889;48.232;10.110;2023-12-20T15:37:43;4.30;88.90
79439;DHT22;68889;48.232;10.110;2023-12-20T15:40:10;4.30;88.80
79439;DHT22;68889;48.232;10.110;2023-12-20T15:42:41;4.30;89.20
79439;DHT22;68889;48.232;10.110;2023-12-20T15:45:10;4.30;88.70
79439;DHT22;68889;48.232;10.110;2023-12-20T15:47:39;4.30;88.70